Time;durP1;ratioP1;P1;durP2;ratioP2;P2;SDS_P1;SDS_P2;PMS_P1;PMS_P2;Temp;Humidity;BMP_temperature;BMP_pressure;BME280_temperature;BME280_humidity;BME280_pressure;Samples;Min_cycle;Max_cycle;Signal;HPM_P1;HPM_P2
2021/09/14 00:01:17;;;;;;;8.80;8.00;;;16.90;99.90;;;;;;6143882;23;20658;-84
2021/09/14 00:03:56;;;;;;;10.50;9.50;;;16.90;99.90;;;;;;6149269;23;20590;-85
2021/09/14 00:06:40;;;;;;;9.73;8.93;;;16.90;99.90;;;;;;6148566;23;20619;-85
2021/09/14 00:09:14;;;;;;;9.20;8.27;;;16.90;99.90;;;;;;6148884;23;20554;-85
2021/09/14 00:11:46;;;;;;;10.30;9.30;;;16.90;99.90;;;;;;6149120;23;20925;-85
2021/09/14 00:14:33;;;;;;;8.87;8.00;;;16.90;99.90;;;;;;6148510;22;20596;-84
2021/09/14 00:17:10;;;;;;;8.77;8.07;;;16.90;99.90;;;;;;6148480;23;20532;-85
2021/09/14 00:19:52;;;;;;;8.90;7.93;;;16.90;99.90;;;;;;6149874;23;20961;-85
2021/09/14 00:22:30;;;;;;;8.53;7.80;;;16.90;99.90;;;;;;6148591;22;20980;-85
2021/09/14 00:25:06;;;;;;;11.00;9.83;;;16.90;99.90;;;;;;6147694;22;20623;-85
2021/09/14 00:27:41;;;;;;;8.53;7.80;;;16.90;99.90;;;;;;6149972;23;20636;-85
2021/09/14 00:30:22;;;;;;;8.87;8.03;;;16.90;99.90;;;;;;6148362;22;21120;-85
2021/09/14 00:32:57;;;;;;;8.60;7.63;;;16.90;99.90;;;;;;6147842;22;20573;-84
2021/09/14 00:35:35;;;;;;;8.20;7.47;;;16.80;99.90;;;;;;6142633;23;20594;-84
2021/09/14 00:38:07;;;;;;;8.47;7.77;;;16.80;99.90;;;;;;6148651;23;21030;-84
2021/09/14 00:40:46;;;;;;;13.23;8.93;;;16.80;99.90;;;;;;6149915;23;21081;-84
2021/09/14 00:43:22;;;;;;;9.50;8.20;;;16.70;99.90;;;;;;6148811;23;20946;-85
2021/09/14 00:46:07;;;;;;;9.27;8.37;;;16.70;99.90;;;;;;6148921;23;20551;-85
2021/09/14 00:48:40;;;;;;;9.30;8.50;;;16.60;99.90;;;;;;6148254;23;21066;-84
2021/09/14 00:51:21;;;;;;;9.30;8.33;;;16.60;99.90;;;;;;6149278;23;21189;-85
2021/09/14 00:53:57;;;;;;;7.97;7.27;;;16.60;99.90;;;;;;6149302;23;20578;-84
2021/09/14 00:56:39;;;;;;;10.90;8.50;;;16.60;99.90;;;;;;6149227;22;20604;-84
2021/09/14 00:59:10;;;;;;;8.47;7.77;;;16.70;99.90;;;;;;6148174;23;20568;-85
2021/09/14 01:01:54;;;;;;;9.40;8.50;;;16.60;99.90;;;;;;6149856;23;20564;-85
2021/09/14 01:04:30;;;;;;;8.70;7.60;;;16.60;99.90;;;;;;6147963;23;20581;-84
2021/09/14 01:07:06;;;;;;;7.50;6.80;;;16.60;99.90;;;;;;6148612;23;20528;-84
2021/09/14 01:09:53;;;;;;;8.50;7.70;;;16.60;99.90;;;;;;6146193;22;20680;-85
2021/09/14 01:12:41;;;;;;;8.60;7.37;;;16.70;99.90;;;;;;6147123;22;20567;-85
2021/09/14 01:15:28;;;;;;;7.50;6.90;;;16.60;99.90;;;;;;6147277;23;20694;-84
2021/09/14 01:18:14;;;;;;;7.53;6.83;;;16.60;99.90;;;;;;6149084;23;21165;-84
2021/09/14 01:21:01;;;;;;;7.63;6.93;;;16.60;99.90;;;;;;6147594;23;20684;-85
2021/09/14 01:23:50;;;;;;;8.50;7.70;;;16.50;99.90;;;;;;6146908;23;20622;-84
2021/09/14 01:26:37;;;;;;;8.97;8.07;;;16.50;99.90;;;;;;6146419;23;20583;-84
2021/09/14 01:32:28;;;;;;;7.10;6.40;;;16.50;99.90;;;;;;6146857;23;20580;-84
2021/09/14 01:35:17;;;;;;;8.30;7.60;;;16.50;99.90;;;;;;6141411;22;21152;-84
2021/09/14 01:38:04;;;;;;;12.70;8.43;;;16.40;99.90;;;;;;6146287;23;20614;-84
2021/09/14 01:40:53;;;;;;;8.73;8.03;;;16.40;99.90;;;;;;6148790;22;20600;-84
2021/09/14 01:43:41;;;;;;;8.60;7.57;;;16.40;99.90;;;;;;6146638;22;20578;-83
2021/09/14 01:46:28;;;;;;;8.80;8.00;;;16.40;99.90;;;;;;6147755;22;21164;-84
2021/09/14 01:49:15;;;;;;;8.87;8.20;;;16.20;99.90;;;;;;6146743;22;20602;-84
2021/09/14 01:52:02;;;;;;;8.80;7.90;;;16.20;99.90;;;;;;6146905;23;20654;-84
2021/09/14 01:54:50;;;;;;;8.33;7.50;;;16.20;99.90;;;;;;6147835;22;21189;-84
2021/09/14 01:57:40;;;;;;;8.23;7.53;;;16.30;99.90;;;;;;6147852;22;20577;-84
2021/09/14 02:00:30;;;;;;;8.60;7.80;;;16.20;99.90;;;;;;6147864;23;21246;-84
2021/09/14 02:03:29;;;;;;;8.60;7.97;;;16.20;99.90;;;;;;6147548;23;20627;-84
2021/09/14 02:29:58;;;;;;;9.20;8.30;;;16.20;99.90;;;;;;6145770;23;21174;-84
2021/09/14 02:38:18;;;;;;;7.83;7.13;;;16.00;99.90;;;;;;6120610;23;20651;-84
2021/09/14 02:40:41;;;;;;;8.77;8.00;;;16.00;99.90;;;;;;6145018;22;20716;-84
2021/09/14 02:43:42;;;;;;;9.90;8.90;;;16.00;99.90;;;;;;6146993;23;20704;-84
2021/09/14 02:58:49;;;;;;;8.97;8.07;;;16.10;99.90;;;;;;6146705;23;20585;-84
2021/09/14 03:01:37;;;;;;;9.50;8.60;;;16.10;99.90;;;;;;6147169;23;20593;-84
2021/09/14 03:04:24;;;;;;;10.50;8.90;;;16.10;99.90;;;;;;6147221;22;20571;-84
2021/09/14 03:07:11;;;;;;;8.57;7.80;;;16.10;99.90;;;;;;6147625;22;20615;-84
2021/09/14 03:09:58;;;;;;;9.27;8.53;;;16.10;99.90;;;;;;6146661;23;20593;-84
2021/09/14 03:12:45;;;;;;;10.47;9.23;;;16.20;99.90;;;;;;6145962;23;20593;-84
2021/09/14 03:15:32;;;;;;;9.77;8.87;;;16.20;99.90;;;;;;6147859;23;20628;-84
2021/09/14 03:18:20;;;;;;;10.33;9.33;;;16.30;99.90;;;;;;6147006;23;20573;-84
2021/09/14 03:21:01;;;;;;;10.83;9.63;;;16.30;99.90;;;;;;6147933;23;20590;-85
2021/09/14 03:23:48;;;;;;;10.53;9.50;;;16.40;99.90;;;;;;6146729;23;20566;-84
2021/09/14 03:26:35;;;;;;;12.17;10.97;;;16.40;99.90;;;;;;6147345;23;20597;-84
2021/09/14 03:29:11;;;;;;;11.57;10.43;;;16.40;99.90;;;;;;6147632;23;20588;-84
2021/09/14 03:31:47;;;;;;;11.87;10.67;;;16.40;99.90;;;;;;6147773;23;20554;-84
2021/09/14 03:34:36;;;;;;;12.57;11.37;;;16.40;99.90;;;;;;6146238;23;20621;-84
2021/09/14 03:37:27;;;;;;;12.43;11.13;;;16.50;99.90;;;;;;6148539;23;20609;-86
2021/09/14 03:40:14;;;;;;;12.13;11.03;;;16.50;99.90;;;;;;6149050;23;20567;-84
2021/09/14 03:43:00;;;;;;;12.10;11.00;;;16.50;99.90;;;;;;6147209;23;20558;-84
2021/09/14 03:45:48;;;;;;;12.53;11.43;;;16.50;99.90;;;;;;6148170;22;20590;-84
2021/09/14 03:48:33;;;;;;;11.53;10.37;;;16.40;99.90;;;;;;6148589;23;20617;-84
2021/09/14 03:51:21;;;;;;;12.20;11.20;;;16.40;99.90;;;;;;6146600;23;20575;-84
2021/09/14 03:54:08;;;;;;;11.20;9.93;;;16.40;99.90;;;;;;6143767;23;22223;-84
2021/09/14 03:56:55;;;;;;;11.30;10.20;;;16.50;99.90;;;;;;6146239;22;20666;-84
2021/09/14 03:59:41;;;;;;;10.70;9.70;;;16.40;99.90;;;;;;6149153;23;20562;-83
2021/09/14 04:02:34;;;;;;;10.97;9.67;;;16.40;99.90;;;;;;6148425;22;20637;-84
2021/09/14 04:05:36;;;;;;;10.23;9.23;;;16.40;99.90;;;;;;6147326;22;20577;-84
2021/09/14 04:11:29;;;;;;;11.43;10.23;;;16.40;99.90;;;;;;6142347;23;21179;-84
2021/09/14 04:14:15;;;;;;;12.37;11.20;;;16.50;99.90;;;;;;6149612;23;20533;-84
2021/09/14 04:16:59;;;;;;;11.97;10.97;;;16.30;99.90;;;;;;6149375;23;20655;-84
2021/09/14 04:19:45;;;;;;;11.60;10.50;;;16.40;99.90;;;;;;6149880;23;20562;-84
2021/09/14 04:22:31;;;;;;;12.53;11.43;;;16.30;99.90;;;;;;6147798;23;20604;-84
2021/09/14 04:25:11;;;;;;;13.93;12.60;;;16.30;99.90;;;;;;6149882;23;20535;-84
2021/09/14 04:27:57;;;;;;;12.47;11.27;;;16.30;99.90;;;;;;6144194;23;20674;-84
2021/09/14 04:30:45;;;;;;;12.60;11.50;;;16.30;99.90;;;;;;6145877;22;21083;-84
2021/09/14 04:33:31;;;;;;;12.30;11.20;;;16.30;99.90;;;;;;6147478;23;20684;-84
2021/09/14 04:36:12;;;;;;;12.50;11.33;;;16.30;99.90;;;;;;6148515;23;20726;-84
2021/09/14 04:38:59;;;;;;;11.20;10.10;;;16.30;99.90;;;;;;6147520;23;20628;-84
2021/09/14 04:41:55;;;;;;;11.60;10.60;;;16.30;99.90;;;;;;6146142;23;21244;-84
2021/09/14 04:44:44;;;;;;;12.60;10.63;;;16.30;99.90;;;;;;6148329;23;21079;-85
2021/09/14 04:47:30;;;;;;;11.43;10.20;;;16.30;99.90;;;;;;6149082;23;20573;-84
2021/09/14 04:50:17;;;;;;;11.67;10.53;;;16.30;99.90;;;;;;6147323;23;21143;-84
2021/09/14 04:53:09;;;;;;;12.10;10.90;;;16.20;99.90;;;;;;6146538;23;20667;-84
2021/09/14 04:55:57;;;;;;;11.70;10.67;;;16.30;99.90;;;;;;6146090;23;20622;-84
2021/09/14 04:58:43;;;;;;;11.30;10.17;;;16.20;99.90;;;;;;6147397;23;20573;-85
2021/09/14 05:01:33;;;;;;;11.07;9.97;;;16.20;99.90;;;;;;6146231;22;21347;-84
2021/09/14 05:04:15;;;;;;;10.10;9.20;;;16.20;99.90;;;;;;6143994;23;20630;-83
2021/09/14 05:07:00;;;;;;;10.90;9.90;;;16.20;99.90;;;;;;6148426;22;20586;-83
2021/09/14 05:09:46;;;;;;;11.50;10.47;;;16.20;99.90;;;;;;6148803;23;20532;-85
2021/09/14 05:12:28;;;;;;;12.40;11.17;;;16.20;99.90;;;;;;6148445;23;20618;-85
2021/09/14 05:15:19;;;;;;;11.83;10.63;;;16.20;99.90;;;;;;6148176;23;20924;-85
2021/09/14 05:18:11;;;;;;;12.93;11.77;;;16.20;99.90;;;;;;6148225;22;20599;-84
2021/09/14 05:20:59;;;;;;;14.53;13.13;;;16.20;99.90;;;;;;6149405;22;20604;-83
2021/09/14 05:23:46;;;;;;;13.83;12.63;;;16.30;99.90;;;;;;6148529;22;20585;-84
2021/09/14 05:26:26;;;;;;;13.20;12.00;;;16.30;99.90;;;;;;6149513;23;20624;-84
2021/09/14 05:29:14;;;;;;;13.63;12.20;;;16.30;99.90;;;;;;6142487;23;20593;-85
2021/09/14 05:32:02;;;;;;;12.70;11.30;;;16.20;99.90;;;;;;6146674;23;20595;-83
2021/09/14 05:34:45;;;;;;;13.33;12.03;;;16.30;99.90;;;;;;6149497;22;20672;-84
2021/09/14 05:37:32;;;;;;;13.23;11.20;;;16.30;99.90;;;;;;6148876;22;20663;-84
2021/09/14 05:40:15;;;;;;;12.00;10.90;;;16.40;99.90;;;;;;6149837;23;20567;-84
2021/09/14 05:42:59;;;;;;;10.83;9.80;;;16.50;99.90;;;;;;6149870;22;21147;-84
2021/09/14 05:45:40;;;;;;;13.77;11.70;;;16.50;99.90;;;;;;6151017;23;20561;-84
2021/09/14 05:48:27;;;;;;;16.67;12.77;;;16.50;99.90;;;;;;6152206;22;20608;-84
2021/09/14 05:51:07;;;;;;;23.40;12.80;;;16.50;99.90;;;;;;6153334;23;20571;-84
2021/09/14 05:53:44;;;;;;;14.43;10.43;;;16.60;99.90;;;;;;6150144;23;20935;-85
2021/09/14 05:56:28;;;;;;;32.43;12.10;;;16.60;99.90;;;;;;6150376;22;20588;-83
2021/09/14 05:59:03;;;;;;;24.17;13.27;;;16.60;99.90;;;;;;6153750;23;21143;-82
2021/09/14 06:01:38;;;;;;;12.77;10.80;;;16.80;99.90;;;;;;6153369;23;20570;-83
2021/09/14 06:04:15;;;;;;;21.33;11.90;;;16.80;99.90;;;;;;6152594;23;20618;-83
2021/09/14 06:06:44;;;;;;;12.80;11.47;;;16.80;99.90;;;;;;6154001;23;20624;-84
2021/09/14 06:09:20;;;;;;;10.57;9.57;;;16.90;99.90;;;;;;6152233;23;20591;-84
2021/09/14 06:11:53;;;;;;;12.60;9.93;;;16.90;99.90;;;;;;6152090;23;20574;-83
2021/09/14 06:14:24;;;;;;;11.23;10.23;;;17.00;99.90;;;;;;6153477;23;20528;-83
2021/09/14 06:17:01;;;;;;;11.73;10.43;;;17.10;99.90;;;;;;6154196;22;20955;-82
2021/09/14 06:19:46;;;;;;;8.93;8.17;;;17.10;99.90;;;;;;6148865;23;20631;-83
2021/09/14 06:22:27;;;;;;;9.83;9.03;;;17.20;99.90;;;;;;6153611;22;20588;-83
2021/09/14 06:25:07;;;;;;;10.57;9.43;;;17.30;99.90;;;;;;6153390;23;20536;-83
2021/09/14 06:27:46;;;;;;;8.73;8.00;;;17.30;99.90;;;;;;6154019;23;20587;-85
2021/09/14 06:30:33;;;;;;;9.33;8.40;;;17.40;99.90;;;;;;6152851;22;20602;-84
2021/09/14 06:33:15;;;;;;;9.70;8.80;;;17.40;99.90;;;;;;6153494;22;20582;-83
2021/09/14 06:35:58;;;;;;;9.13;8.23;;;17.50;99.90;;;;;;6153792;22;20671;-85
2021/09/14 06:38:42;;;;;;;9.57;8.63;;;17.60;99.90;;;;;;6151308;22;20584;-85
2021/09/14 06:41:29;;;;;;;8.77;7.97;;;17.70;99.90;;;;;;6152193;23;20617;-83
2021/09/14 06:44:04;;;;;;;9.70;8.70;;;17.70;99.90;;;;;;6151701;23;20540;-83
2021/09/14 06:46:49;;;;;;;8.17;7.47;;;17.80;99.90;;;;;;6154467;23;20568;-83
2021/09/14 06:49:33;;;;;;;9.30;8.40;;;17.90;99.90;;;;;;6153545;23;20572;-83
2021/09/14 06:52:20;;;;;;;8.43;7.60;;;18.00;99.90;;;;;;6152220;23;21113;-85
2021/09/14 06:55:08;;;;;;;8.77;8.03;;;18.10;99.90;;;;;;6150792;22;20571;-84
2021/09/14 06:57:50;;;;;;;8.30;7.60;;;18.20;99.90;;;;;;6152019;23;20545;-82
2021/09/14 07:00:37;;;;;;;7.70;7.10;;;18.40;99.90;;;;;;6151106;22;20601;-85
2021/09/14 07:03:24;;;;;;;8.20;7.47;;;18.60;99.90;;;;;;6150872;23;20585;-85
2021/09/14 07:06:08;;;;;;;8.37;7.67;;;18.70;99.90;;;;;;6151911;22;20642;-84
2021/09/14 07:08:56;;;;;;;10.20;9.30;;;18.70;99.90;;;;;;6152804;22;20595;-84
2021/09/14 07:11:43;;;;;;;14.37;9.10;;;18.90;99.90;;;;;;6152841;23;20626;-84
2021/09/14 07:14:30;;;;;;;9.77;7.43;;;18.80;99.90;;;;;;6153012;22;20561;-84
2021/09/14 07:17:17;;;;;;;8.73;8.00;;;18.90;99.90;;;;;;6152201;22;20704;-85
2021/09/14 07:20:01;;;;;;;8.33;7.63;;;19.00;99.90;;;;;;6151291;23;20900;-85
2021/09/14 07:22:48;;;;;;;11.27;8.27;;;19.00;99.90;;;;;;6152522;23;20596;-84
2021/09/14 07:25:26;;;;;;;8.00;7.20;;;19.10;99.90;;;;;;6154464;23;20921;-85
2021/09/14 07:28:14;;;;;;;7.53;6.90;;;19.20;99.90;;;;;;6154400;23;20593;-85
2021/09/14 07:30:59;;;;;;;7.90;7.10;;;19.20;99.90;;;;;;6155188;22;21113;-85
2021/09/14 07:33:42;;;;;;;6.53;6.03;;;19.20;99.90;;;;;;6154314;22;20585;-85
2021/09/14 07:36:29;;;;;;;7.13;6.53;;;19.20;99.90;;;;;;6152947;23;20646;-85
2021/09/14 07:39:16;;;;;;;8.00;6.57;;;19.30;99.90;;;;;;6154119;22;20565;-85
2021/09/14 07:41:54;;;;;;;8.50;7.03;;;19.30;99.90;;;;;;6154553;23;20565;-85
2021/09/14 07:44:41;;;;;;;8.50;6.83;;;19.30;99.90;;;;;;6152143;23;20576;-85
2021/09/14 07:47:27;;;;;;;6.83;6.33;;;19.40;99.90;;;;;;6154361;22;20573;-85
2021/09/14 07:50:11;;;;;;;6.70;6.10;;;19.40;99.90;;;;;;6155254;23;20600;-86
2021/09/14 07:52:58;;;;;;;7.20;6.60;;;19.60;99.90;;;;;;6154613;22;20623;-85
2021/09/14 07:55:35;;;;;;;7.40;6.80;;;19.80;99.90;;;;;;6154924;23;20529;-85
2021/09/14 07:58:21;;;;;;;8.50;6.77;;;19.80;99.90;;;;;;6155224;22;21074;-85
2021/09/14 08:01:08;;;;;;;7.27;6.67;;;19.80;99.90;;;;;;6153259;23;20726;-85
2021/09/14 08:03:52;;;;;;;7.53;6.83;;;20.00;99.40;;;;;;6153916;23;20565;-86
2021/09/14 08:06:39;;;;;;;6.50;6.00;;;20.10;99.20;;;;;;6152471;23;20573;-85
2021/09/14 08:09:21;;;;;;;7.23;6.53;;;20.20;99.50;;;;;;6154419;23;20591;-85
2021/09/14 08:12:09;;;;;;;8.90;8.20;;;20.40;99.10;;;;;;6153732;22;20573;-86
2021/09/14 08:14:57;;;;;;;10.17;6.27;;;20.50;99.10;;;;;;6152975;23;20930;-85
2021/09/14 08:17:39;;;;;;;7.40;6.80;;;20.70;98.60;;;;;;6147945;22;21291;-85
2021/09/14 08:20:29;;;;;;;6.77;6.27;;;20.80;98.50;;;;;;6150694;22;20229;-85
2021/09/14 08:23:14;;;;;;;6.67;6.10;;;20.90;98.40;;;;;;6151927;23;20550;-86
2021/09/14 08:25:52;;;;;;;7.47;6.67;;;21.00;98.00;;;;;;6153230;23;20593;-85
2021/09/14 08:28:42;;;;;;;6.90;6.30;;;21.10;98.20;;;;;;6152845;23;21226;-85
2021/09/14 08:31:31;;;;;;;7.97;7.17;;;21.20;98.10;;;;;;6151981;23;20633;-85
2021/09/14 08:34:18;;;;;;;7.03;6.33;;;21.50;97.60;;;;;;6145597;23;20669;-85
2021/09/14 08:40:38;;;;;;;7.07;6.37;;;21.60;97.60;;;;;;6152659;23;20623;-85
2021/09/14 08:43:29;;;;;;;6.50;5.90;;;21.60;97.80;;;;;;6151897;22;20581;-83
2021/09/14 08:46:18;;;;;;;7.63;6.83;;;21.50;97.30;;;;;;6152380;22;20587;-86
2021/09/14 08:49:16;;;;;;;6.77;6.20;;;21.60;97.70;;;;;;6151003;23;20640;-86
2021/09/14 08:52:03;;;;;;;6.50;5.97;;;21.90;97.30;;;;;;6146754;23;20624;-85
2021/09/14 08:55:14;;;;;;;7.40;6.80;;;22.00;97.30;;;;;;6152377;22;20645;-86
2021/09/14 08:58:06;;;;;;;8.90;6.83;;;22.10;96.90;;;;;;6152159;22;20614;-85
2021/09/14 09:00:56;;;;;;;7.13;6.53;;;22.20;96.90;;;;;;6152247;23;20674;-84
2021/09/14 09:03:45;;;;;;;7.10;6.60;;;22.50;95.90;;;;;;6151202;23;21131;-86
2021/09/14 09:06:38;;;;;;;6.80;6.20;;;22.70;95.90;;;;;;6151510;22;20670;-85
2021/09/14 09:09:27;;;;;;;12.97;8.40;;;22.80;95.70;;;;;;6150953;23;20579;-86
2021/09/14 09:12:17;;;;;;;6.57;6.07;;;22.80;96.10;;;;;;6149720;23;20603;-86
2021/09/14 09:15:12;;;;;;;9.00;6.50;;;22.80;96.00;;;;;;6149793;23;20658;-86
2021/09/14 09:18:13;;;;;;;6.80;6.17;;;22.90;95.20;;;;;;6150478;23;20618;-85
2021/09/14 09:21:05;;;;;;;7.27;6.67;;;23.00;95.80;;;;;;6151383;22;20568;-86
2021/09/14 09:24:47;;;;;;;7.93;7.03;;;23.10;95.10;;;;;;6147837;23;20998;-85
2021/09/14 09:27:47;;;;;;;7.33;6.70;;;23.30;95.20;;;;;;6151857;22;20584;-86
2021/09/14 09:30:36;;;;;;;6.87;6.37;;;23.40;94.70;;;;;;6149511;22;20619;-86
2021/09/14 09:33:24;;;;;;;6.50;6.00;;;23.20;95.30;;;;;;6121899;23;20590;-86
2021/09/14 09:36:12;;;;;;;7.30;6.50;;;23.40;95.20;;;;;;6123027;23;20631;-85
2021/09/14 09:39:08;;;;;;;6.57;5.97;;;23.60;94.30;;;;;;6122470;23;20586;-87
2021/09/14 09:41:56;;;;;;;6.73;6.20;;;23.80;93.90;;;;;;6122212;23;20621;-85
2021/09/14 09:44:57;;;;;;;5.60;5.20;;;23.80;94.00;;;;;;6117382;23;20598;-84
2021/09/14 09:47:45;;;;;;;6.07;5.57;;;24.00;93.40;;;;;;6122248;23;21126;-85
2021/09/14 09:50:32;;;;;;;8.93;7.60;;;24.00;94.60;;;;;;6122336;22;20909;-85
2021/09/14 09:53:55;;;;;;;6.53;6.03;;;24.10;93.80;;;;;;6121545;23;21444;-87
2021/09/14 09:56:42;;;;;;;6.30;5.70;;;24.20;93.40;;;;;;6125611;22;20594;-87
2021/09/14 09:59:29;;;;;;;6.40;5.90;;;24.40;93.10;;;;;;6123359;23;20621;-87
2021/09/14 10:02:22;;;;;;;6.67;6.17;;;24.60;92.60;;;;;;6118755;23;20656;-85
2021/09/14 10:05:12;;;;;;;6.00;5.60;;;24.50;94.10;;;;;;6121499;23;20597;-84
2021/09/14 10:08:07;;;;;;;5.90;5.50;;;24.60;92.90;;;;;;6119614;23;20601;-88
2021/09/14 10:10:58;;;;;;;7.03;6.43;;;24.70;92.10;;;;;;6123198;23;20676;-88
2021/09/14 10:13:45;;;;;;;6.97;6.37;;;24.80;92.00;;;;;;6119728;23;20618;-84
2021/09/14 10:16:35;;;;;;;6.03;5.63;;;24.70;91.80;;;;;;6118151;23;20574;-85
2021/09/14 10:19:31;;;;;;;6.53;5.93;;;24.80;92.20;;;;;;6118609;23;20597;-84
2021/09/14 10:22:24;;;;;;;7.40;6.90;;;24.90;91.80;;;;;;6120664;23;21381;-85
2021/09/14 10:25:21;;;;;;;5.93;5.53;;;25.10;92.20;;;;;;6119288;22;21296;-85
2021/09/14 10:28:12;;;;;;;6.63;6.13;;;24.90;92.50;;;;;;6120409;23;20609;-85
2021/09/14 10:31:01;;;;;;;7.53;6.93;;;25.00;91.00;;;;;;6119844;23;20628;-85
2021/09/14 10:34:00;;;;;;;7.50;6.63;;;25.20;91.70;;;;;;6120584;22;20581;-88
2021/09/14 10:37:01;;;;;;;7.23;6.27;;;25.20;91.30;;;;;;6120943;22;20604;-87
2021/09/14 10:39:46;;;;;;;7.63;6.70;;;25.50;91.30;;;;;;6123023;23;20581;-88
2021/09/14 10:42:39;;;;;;;7.00;6.50;;;25.60;91.70;;;;;;6122653;23;20664;-86
2021/09/14 10:45:26;;;;;;;6.80;6.30;;;25.50;91.50;;;;;;6121470;22;20962;-87
2021/09/14 10:48:22;;;;;;;10.07;7.03;;;25.50;91.50;;;;;;6123812;23;20962;-87
2021/09/14 10:51:12;;;;;;;7.93;7.33;;;25.60;91.60;;;;;;6123209;23;20669;-87
2021/09/14 10:54:00;;;;;;;6.57;6.03;;;25.50;91.70;;;;;;6123443;23;20961;-86
2021/09/14 10:56:49;;;;;;;6.67;6.10;;;25.40;90.50;;;;;;6123072;23;20952;-89
2021/09/14 10:59:32;;;;;;;8.43;6.47;;;25.50;91.50;;;;;;6124059;22;20589;-87
2021/09/14 11:02:25;;;;;;;6.93;6.23;;;25.60;90.70;;;;;;6124459;23;21158;-89
2021/09/14 11:05:12;;;;;;;7.77;6.50;;;25.60;91.10;;;;;;6123451;23;20566;-87
2021/09/14 11:08:00;;;;;;;7.23;6.63;;;25.70;91.00;;;;;;6122612;23;20608;-86
2021/09/14 11:10:47;;;;;;;6.97;5.70;;;25.60;91.00;;;;;;6124345;23;20562;-86
2021/09/14 11:13:39;;;;;;;7.20;6.50;;;25.50;91.10;;;;;;6122469;23;20663;-86
2021/09/14 11:16:29;;;;;;;7.57;6.17;;;25.50;91.50;;;;;;6122528;23;20570;-88
2021/09/14 11:19:32;;;;;;;7.13;6.10;;;25.50;90.70;;;;;;6122363;23;20593;-86
2021/09/14 11:22:32;;;;;;;6.73;6.13;;;25.80;90.50;;;;;;6122704;22;20597;-87
2021/09/14 11:25:21;;;;;;;8.80;6.53;;;26.10;89.10;;;;;;6124256;23;20593;-85
2021/09/14 11:28:11;;;;;;;11.23;6.47;;;26.10;91.10;;;;;;6117368;23;21179;-86
2021/09/14 11:31:00;;;;;;;8.47;6.23;;;26.00;90.30;;;;;;6121272;23;20647;-87
2021/09/14 11:33:48;;;;;;;7.03;6.33;;;26.10;91.00;;;;;;6123957;23;20620;-85
2021/09/14 11:36:35;;;;;;;9.27;7.10;;;26.10;90.00;;;;;;6122663;22;20665;-87
2021/09/14 11:39:22;;;;;;;6.73;6.27;;;25.90;90.30;;;;;;6122573;23;20606;-86
2021/09/14 11:42:10;;;;;;;6.90;6.40;;;25.90;90.20;;;;;;6121516;23;20664;-87
2021/09/14 11:45:09;;;;;;;13.73;6.67;;;25.90;90.00;;;;;;6121238;23;20576;-87
2021/09/14 11:47:57;;;;;;;7.50;6.43;;;26.20;89.30;;;;;;6123682;23;20605;-86
2021/09/14 11:50:44;;;;;;;8.17;6.27;;;26.30;89.00;;;;;;6124454;23;20604;-87
2021/09/14 11:53:32;;;;;;;8.57;6.00;;;26.20;87.40;;;;;;6121705;23;20629;-85
2021/09/14 11:56:55;;;;;;;7.30;6.70;;;26.20;89.80;;;;;;6122178;23;21151;-88
2021/09/14 11:59:42;;;;;;;6.43;5.83;;;26.20;88.00;;;;;;6014048;23;20587;-86
2021/09/14 12:02:30;;;;;;;6.00;5.50;;;26.20;90.00;;;;;;6122166;23;20629;-86
2021/09/14 12:05:21;;;;;;;6.57;6.07;;;26.20;88.60;;;;;;6121951;22;20596;-88
2021/09/14 12:08:34;;;;;;;7.50;6.20;;;26.10;87.40;;;;;;6120936;23;20615;-89
2021/09/14 12:11:27;;;;;;;6.60;6.00;;;26.30;88.60;;;;;;6116878;22;20604;-87
2021/09/14 12:14:19;;;;;;;5.93;5.50;;;26.00;89.00;;;;;;6124443;23;20582;-87
2021/09/14 12:17:07;;;;;;;7.27;5.97;;;25.80;89.00;;;;;;6124978;23;20578;-88
2021/09/14 12:19:56;;;;;;;7.33;6.73;;;25.90;88.80;;;;;;6124220;23;20602;-86
2021/09/14 12:25:30;;;;;;;5.70;5.27;;;26.00;87.70;;;;;;6124980;22;20576;-87
2021/09/14 12:28:25;;;;;;;7.40;6.70;;;26.10;90.20;;;;;;6124327;22;20670;-88
2021/09/14 12:31:53;;;;;;;6.47;5.93;;;26.20;90.00;;;;;;6124380;23;20654;-89
2021/09/14 12:34:30;;;;;;;6.60;6.00;;;26.30;88.20;;;;;;6131643;23;20596;-86
2021/09/14 12:37:03;;;;;;;7.20;6.20;;;26.50;88.50;;;;;;6124273;22;20586;-86
2021/09/14 12:39:37;;;;;;;12.93;7.80;;;26.40;87.30;;;;;;6118057;22;20578;-86
2021/09/14 12:42:10;;;;;;;7.63;7.00;;;26.20;88.50;;;;;;6122633;22;20610;-87
2021/09/14 12:44:48;;;;;;;6.73;6.23;;;26.20;90.10;;;;;;6122699;22;20574;-86
2021/09/14 12:47:37;;;;;;;7.33;6.80;;;26.10;90.10;;;;;;6123411;22;20982;-88
2021/09/14 12:50:24;;;;;;;7.37;6.83;;;26.20;91.00;;;;;;6123546;23;20673;-86
2021/09/14 12:53:03;;;;;;;7.30;6.70;;;26.30;90.20;;;;;;6123883;22;20954;-86
2021/09/14 12:55:50;;;;;;;9.00;6.43;;;25.90;90.40;;;;;;6122876;23;20971;-87
2021/09/14 12:58:37;;;;;;;7.10;6.40;;;25.90;90.50;;;;;;6123225;22;20578;-86
2021/09/14 13:01:24;;;;;;;7.47;6.73;;;26.10;91.00;;;;;;6123775;23;20608;-85
2021/09/14 13:04:11;;;;;;;7.40;6.77;;;26.00;91.50;;;;;;6121626;23;20983;-84
2021/09/14 13:06:58;;;;;;;6.90;6.40;;;25.80;88.70;;;;;;6124430;23;20629;-84
2021/09/14 13:09:38;;;;;;;7.50;6.80;;;26.10;90.80;;;;;;6122223;22;20577;-85
2021/09/14 13:12:21;;;;;;;8.83;7.30;;;25.90;88.80;;;;;;6123029;23;20546;-84
2021/09/14 13:17:59;;;;;;;7.50;6.80;;;26.00;90.80;;;;;;6121562;23;20558;-88
2021/09/14 13:20:44;;;;;;;6.90;6.30;;;26.30;90.40;;;;;;6118336;23;20657;-85
2021/09/14 13:23:31;;;;;;;7.80;7.13;;;26.20;88.60;;;;;;6121754;23;20688;-86
2021/09/14 13:26:21;;;;;;;13.57;8.70;;;26.00;90.70;;;;;;6123499;23;20593;-86
2021/09/14 13:29:09;;;;;;;8.80;8.10;;;26.10;89.30;;;;;;6123455;23;20594;-85
2021/09/14 13:31:52;;;;;;;7.83;7.23;;;25.90;88.60;;;;;;6123665;23;21091;-85
2021/09/14 13:34:39;;;;;;;6.90;6.30;;;25.80;89.30;;;;;;6121061;23;20597;-86
2021/09/14 13:37:21;;;;;;;7.50;7.00;;;25.90;90.00;;;;;;6124551;23;20558;-86
2021/09/14 13:39:57;;;;;;;7.63;7.03;;;26.30;90.40;;;;;;6124537;23;20565;-86
2021/09/14 13:42:53;;;;;;;7.00;6.50;;;26.60;88.80;;;;;;6122924;22;20641;-87
2021/09/14 13:48:23;;;;;;;7.50;6.90;;;27.30;88.80;;;;;;6122776;23;20621;-86
2021/09/14 13:51:04;;;;;;;6.77;6.17;;;27.70;86.40;;;;;;6123164;23;20605;-87
2021/09/14 13:53:46;;;;;;;6.93;6.33;;;28.50;85.10;;;;;;6124226;23;20584;-89
2021/09/14 13:56:28;;;;;;;7.10;6.50;;;29.30;83.30;;;;;;6118014;23;20607;-87
2021/09/14 13:59:25;;;;;;;7.20;6.60;;;30.10;80.50;;;;;;6124268;23;21118;-87
2021/09/14 14:02:12;;;;;;;7.00;6.50;;;30.50;78.00;;;;;;6123217;22;20589;-87
2021/09/14 14:04:55;;;;;;;7.40;6.90;;;30.40;79.20;;;;;;6124377;23;20653;-87
2021/09/14 14:07:38;;;;;;;7.87;7.27;;;30.10;78.10;;;;;;6121880;22;20581;-88
2021/09/14 14:10:26;;;;;;;7.03;6.43;;;29.30;76.90;;;;;;6123362;22;20647;-88
2021/09/14 14:13:10;;;;;;;6.43;5.93;;;28.80;80.80;;;;;;6124396;22;20573;-88
2021/09/14 14:15:53;;;;;;;8.90;7.40;;;28.50;80.60;;;;;;6124873;22;20659;-88
2021/09/14 14:18:41;;;;;;;6.47;6.07;;;28.30;83.10;;;;;;6123641;23;20633;-85
2021/09/14 14:21:30;;;;;;;6.57;6.07;;;27.90;83.00;;;;;;6122665;22;20617;-85
2021/09/14 14:28:06;;;;;;;6.30;5.80;;;28.50;84.90;;;;;;6123917;22;20602;-86
2021/09/14 14:31:04;;;;;;;8.17;7.47;;;29.90;78.60;;;;;;6122456;23;20573;-88
2021/09/14 14:34:09;;;;;;;7.20;6.60;;;31.30;75.30;;;;;;6122646;22;20732;-87
2021/09/14 14:36:56;;;;;;;7.13;6.63;;;30.90;74.30;;;;;;6124297;23;21035;-87
2021/09/14 14:39:43;;;;;;;7.30;6.70;;;30.10;75.00;;;;;;6118781;23;20602;-86
2021/09/14 14:42:22;;;;;;;7.97;7.30;;;29.10;79.60;;;;;;6124780;22;20581;-86
2021/09/14 14:45:08;;;;;;;7.47;6.80;;;28.50;78.60;;;;;;6125568;22;20566;-88
2021/09/14 14:47:56;;;;;;;7.97;7.30;;;28.10;81.70;;;;;;6124919;23;20589;-87
2021/09/14 14:50:42;;;;;;;7.70;7.00;;;27.60;82.70;;;;;;6125259;22;20584;-87
2021/09/14 14:53:29;;;;;;;7.83;7.03;;;27.10;83.70;;;;;;6123179;23;20582;-86
2021/09/14 14:56:29;;;;;;;7.90;7.10;;;26.90;85.80;;;;;;6125368;23;20538;-87
2021/09/14 14:59:09;;;;;;;7.87;7.17;;;26.70;86.00;;;;;;6123997;23;20898;-88
2021/09/14 15:01:55;;;;;;;7.70;7.10;;;26.60;88.40;;;;;;6122947;22;20701;-86
2021/09/14 15:04:42;;;;;;;7.47;6.97;;;26.30;86.70;;;;;;6124938;23;20589;-86
2021/09/14 15:07:19;;;;;;;8.20;7.60;;;26.20;89.10;;;;;;6124226;22;20577;-87
2021/09/14 15:10:01;;;;;;;7.43;6.83;;;26.10;90.80;;;;;;6126206;23;20557;-86
2021/09/14 15:12:36;;;;;;;7.30;6.80;;;26.00;90.80;;;;;;6121195;22;20624;-87
2021/09/14 15:15:13;;;;;;;7.80;7.20;;;26.00;91.40;;;;;;6119751;23;20592;-87
2021/09/14 15:17:59;;;;;;;9.50;7.87;;;25.70;90.90;;;;;;6115746;22;20700;-89
2021/09/14 15:20:31;;;;;;;7.87;7.30;;;25.80;91.90;;;;;;6116747;22;20582;-88
2021/09/14 15:23:04;;;;;;;9.23;8.53;;;25.70;91.90;;;;;;6116853;22;20683;-89
2021/09/14 15:25:36;;;;;;;9.47;8.77;;;25.50;91.60;;;;;;6117652;22;20590;-89